Time;durP1;ratioP1;P1;durP2;ratioP2;P2;SDS_P1;SDS_P2;PMS_P1;PMS_P2;Temp;Humidity;BMP_temperature;BMP_pressure;BME280_temperature;BME280_humidity;BME280_pressure;Samples;Min_cycle;Max_cycle;Signal;HPM_P1;HPM_P2
2022/04/16 06:02:33;;;;;;;;;;;;;;;;;;4987602;28;19962;-85
2022/04/16 06:04:59;;;;;;;;;;;;;;;;;;4987860;28;20000;-83
2022/04/16 06:07:26;;;;;;;;;;;;;;;;;;4960789;28;19980;-84
2022/04/16 06:09:52;;;;;;;;;;;;;;;;;;4975619;28;19968;-86
2022/04/16 06:12:19;;;;;;;;;;;;;;;;;;4985272;28;19976;-86
2022/04/16 06:14:49;;;;;;;;;;;;;;;;;;4985851;28;20009;-86
2022/04/16 06:17:15;;;;;;;;;;;;;;;;;;4975217;28;20071;-85
2022/04/16 06:19:42;;;;;;;;;;;;;;;;;;4959670;28;20028;-86
2022/04/16 06:22:10;;;;;;;;;;;;;;;;;;4970736;28;19968;-86
2022/04/16 06:24:39;;;;;;;;;;;;;;;;;;4982020;28;20405;-85
2022/04/16 06:27:06;;;;;;;;;;;;;;;;;;4981425;28;19957;-85
2022/04/16 06:29:32;;;;;;;;;;;;;;;;;;4982347;28;20389;-85
2022/04/16 06:31:59;;;;;;;;;;;;;;;;;;4974479;28;20025;-85
2022/04/16 06:34:27;;;;;;;;;;;;;;;;;;4957961;28;19929;-83
2022/04/16 06:36:53;;;;;;;;;;;;;;;;;;4977069;28;20013;-82
2022/04/16 06:39:20;;;;;;;;;;;;;;;;;;4976945;28;19973;-84
2022/04/16 06:41:46;;;;;;;;;;;;;;;;;;4984227;28;20020;-83
2022/04/16 06:44:13;;;;;;;;;;;;;;;;;;4981145;28;20402;-84
2022/04/16 06:46:45;;;;;;;;;;;;;;;;;;4984411;28;20445;-83
2022/04/16 06:49:12;;;;;;;;;;;;;;;;;;4976800;28;19926;-83
2022/04/16 06:51:38;;;;;;;;;;;;;;;;;;4965333;28;19930;-84
2022/04/16 06:54:05;;;;;;;;;;;;;;;;;;4990276;28;20016;-83
2022/04/16 06:56:31;;;;;;;;;;;;;;;;;;4976520;28;20016;-84
2022/04/16 06:58:58;;;;;;;;;;;;;;;;;;4972551;28;19957;-85
2022/04/16 07:01:24;;;;;;;;;;;;;;;;;;4950150;28;19926;-85
2022/04/16 07:03:51;;;;;;;;;;;;;;;;;;4968630;28;20026;-84
2022/04/16 07:06:17;;;;;;;;;;;;;;;;;;4954961;28;20020;-84
2022/04/16 07:08:44;;;;;;;;;;;;;;;;;;4948160;28;19957;-84
2022/04/16 07:11:10;;;;;;;;;;;;;;;;;;4950198;28;20020;-83
2022/04/16 07:13:37;;;;;;;;;;;;;;;;;;4952169;28;20014;-84
2022/04/16 07:16:04;;;;;;;;;;;;;;;;;;4967519;28;19956;-83
2022/04/16 07:18:30;;;;;;;;;;;;;;;;;;4951364;28;19926;-84
2022/04/16 07:20:57;;;;;;;;;;;;;;;;;;4968812;28;19938;-83
2022/04/16 07:23:23;;;;;;;;;;;;;;;;;;4964917;28;20375;-85
2022/04/16 07:25:50;;;;;;;;;;;;;;;;;;4949348;28;20485;-83
2022/04/16 07:28:21;;;;;;;;;;;;;;;;;;4966202;28;20032;-84
2022/04/16 07:30:48;;;;;;;;;;;;;;;;;;4967751;28;19961;-83
2022/04/16 07:33:15;;;;;;;;;;;;;;;;;;4966783;28;19969;-84
2022/04/16 07:35:41;;;;;;;;;;;;;;;;;;4947817;28;20403;-83
2022/04/16 07:38:08;;;;;;;;;;;;;;;;;;4964314;28;19981;-84
2022/04/16 07:40:34;;;;;;;;;;;;;;;;;;4964804;28;19985;-82
2022/04/16 07:43:01;;;;;;;;;;;;;;;;;;4964844;28;19953;-82
2022/04/16 07:45:28;;;;;;;;;;;;;;;;;;4967717;28;20008;-84
2022/04/16 07:47:55;;;;;;;;;;;;;;;;;;4966067;28;19930;-84
2022/04/16 07:50:22;;;;;;;;;;;;;;;;;;4967076;28;20374;-84
2022/04/16 07:52:49;;;;;;;;;;;;;;;;;;4947225;28;19965;-84
2022/04/16 07:55:15;;;;;;;;;;;;;;;;;;4967787;28;19937;-84
2022/04/16 07:57:42;;;;;;;;;;;;;;;;;;4969372;28;19930;-85
2022/04/16 08:00:10;;;;;;;;;;;;;;;;;;4949984;28;19934;-85
2022/04/16 08:02:36;;;;;;;;;;;;;;;;;;4942921;28;19978;-85
2022/04/16 08:05:03;;;;;;;;;;;;;;;;;;4963129;28;20310;-84
2022/04/16 08:07:32;;;;;;;;;;;;;;;;;;4949115;28;19976;-83
2022/04/16 08:09:58;;;;;;;;;;;;;;;;;;4968717;28;20004;-84
2022/04/16 08:12:25;;;;;;;;;;;;;;;;;;4960962;28;19926;-85
2022/04/16 08:14:52;;;;;;;;;;;;;;;;;;4968636;28;19977;-84
2022/04/16 08:17:18;;;;;;;;;;;;;;;;;;4967426;28;19930;-84
2022/04/16 08:19:45;;;;;;;;;;;;;;;;;;4949899;28;19930;-85
2022/04/16 08:22:17;;;;;;;;;;;;;;;;;;4948391;28;19969;-86
2022/04/16 08:24:53;;;;;;;;;;;;;;;;;;4968669;28;20016;-86
2022/04/16 08:27:21;;;;;;;;;;;;;;;;;;4949647;28;20343;-85
2022/04/16 08:29:47;;;;;;;;;;;;;;;;;;4967227;28;20315;-86
2022/04/16 08:32:14;;;;;;;;;;;;;;;;;;4967371;28;19958;-85
2022/04/16 08:34:49;;;;;;;;;;;;;;;;;;4964059;28;19961;-86
2022/04/16 08:37:15;;;;;;;;;;;;;;;;;;4959390;28;19969;-87
2022/04/16 08:39:42;;;;;;;;;;;;;;;;;;4958558;28;20009;-86
2022/04/16 08:42:08;;;;;;;;;;;;;;;;;;4963543;28;19961;-86
2022/04/16 08:44:35;;;;;;;;;;;;;;;;;;4964459;28;19958;-84
2022/04/16 08:47:03;;;;;;;;;;;;;;;;;;4967021;28;19984;-85
2022/04/16 08:49:30;;;;;;;;;;;;;;;;;;4948037;28;19930;-84
2022/04/16 08:51:56;;;;;;;;;;;;;;;;;;4962108;28;19927;-87
2022/04/16 08:54:23;;;;;;;;;;;;;;;;;;4965229;28;19930;-85
2022/04/16 08:56:49;;;;;;;;;;;;;;;;;;4967475;28;19973;-85
2022/04/16 08:59:16;;;;;;;;;;;;;;;;;;4966201;28;20031;-86
2022/04/16 09:01:43;;;;;;;;;;;;;;;;;;4979498;28;19969;-85
2022/04/16 09:04:22;;;;;;;;;;;;;;;;;;4986102;28;20005;-86
2022/04/16 09:06:59;;;;;;;;;;;;;;;;;;4969080;28;20398;-85
2022/04/16 09:09:26;;;;;;;;;;;;;;;;;;4967001;28;20013;-85
2022/04/16 09:11:52;;;;;;;;;;;;;;;;;;4965824;28;19966;-86
2022/04/16 09:14:19;;;;;;;;;;;;;;;;;;4985869;28;20008;-85
2022/04/16 09:16:46;;;;;;;;;;;;;;;;;;4986654;28;20017;-86
2022/04/16 09:19:13;;;;;;;;;;;;;;;;;;4968958;28;20008;-86
2022/04/16 09:21:41;;;;;;;;;;;;;;;;;;4986312;28;19985;-86
2022/04/16 09:24:12;;;;;;;;;;;;;;;;;;4986292;28;19926;-86
2022/04/16 09:26:39;;;;;;;;;;;;;;;;;;4968703;28;19965;-86
2022/04/16 09:29:06;;;;;;;;;;;;;;;;;;4967652;28;19934;-85
2022/04/16 09:31:34;;;;;;;;;;;;;;;;;;4968483;28;20458;-85
2022/04/16 09:34:01;;;;;;;;;;;;;;;;;;4987277;28;19929;-85
2022/04/16 09:36:28;;;;;;;;;;;;;;;;;;4984973;28;19968;-86
2022/04/16 09:39:03;;;;;;;;;;;;;;;;;;4982549;28;19976;-84
2022/04/16 09:41:35;;;;;;;;;;;;;;;;;;4980739;28;19930;-84
2022/04/16 09:44:02;;;;;;;;;;;;;;;;;;4986200;28;19929;-85
2022/04/16 09:46:30;;;;;;;;;;;;;;;;;;4969082;28;19929;-86
2022/04/16 09:49:02;;;;;;;;;;;;;;;;;;4967341;28;19930;-85
2022/04/16 09:51:35;;;;;;;;;;;;;;;;;;4966691;28;19969;-85
2022/04/16 09:54:03;;;;;;;;;;;;;;;;;;4965889;28;19930;-85
2022/04/16 09:56:30;;;;;;;;;;;;;;;;;;4981891;28;19960;-85
2022/04/16 09:58:59;;;;;;;;;;;;;;;;;;4984517;28;20661;-84
2022/04/16 10:01:25;;;;;;;;;;;;;;;;;;4975228;28;19942;-85
2022/04/16 10:03:53;;;;;;;;;;;;;;;;;;4963335;28;19934;-86
2022/04/16 10:06:21;;;;;;;;;;;;;;;;;;4963384;28;19930;-86
2022/04/16 10:08:50;;;;;;;;;;;;;;;;;;4966238;28;19930;-85
2022/04/16 10:11:32;;;;;;;;;;;;;;;;;;4961952;28;19977;-85
2022/04/16 10:14:03;;;;;;;;;;;;;;;;;;4964686;28;19930;-84
2022/04/16 10:16:40;;;;;;;;;;;;;;;;;;4947767;28;20437;-84
2022/04/16 10:19:16;;;;;;;;;;;;;;;;;;4963590;28;19929;-84
2022/04/16 10:24:02;;;;;;;;;;;;;;;;;;5021714;27;19929;-84
2022/04/16 10:26:39;;;;;;;;;;;;;;;;;;5028379;28;19925;-84
2022/04/16 10:30:00;;;;;;;6.55;1.40;;;;;;;;;;5010778;28;20485;-85
2022/04/16 10:32:39;;;;;;;4.53;1.30;;;;;;;;;;5002183;28;20061;-85
2022/04/16 10:35:12;;;;;;;1.98;1.42;;;;;;;;;;4999072;28;20447;-83
2022/04/16 10:37:41;;;;;;;1.75;1.23;;;;;;;;;;4995571;28;20070;-83
2022/04/16 10:40:35;;;;;;;4.47;1.50;;;;;;;;;;4993272;28;20077;-85
2022/04/16 10:43:02;;;;;;;2.95;1.25;;;;;;;;;;4996771;28;20085;-84
2022/04/16 10:45:35;;;;;;;3.17;1.50;;;;;;;;;;4995958;28;20070;-85
2022/04/16 10:48:02;;;;;;;1.92;0.90;;;;;;;;;;5001160;28;20514;-86
2022/04/16 10:50:32;;;;;;;3.88;1.42;;;;;;;;;;4989897;28;20576;-86
2022/04/16 10:53:02;;;;;;;2.30;1.30;;;;;;;;;;4995765;28;20077;-86
2022/04/16 10:55:32;;;;;;;2.42;1.48;;;;;;;;;;4977877;28;20509;-87
2022/04/16 10:57:59;;;;;;;2.83;1.30;;;;;;;;;;4989840;28;20066;-87
2022/04/16 11:00:45;;;;;;;3.35;1.40;;;;;;;;;;4990745;28;20070;-85
2022/04/16 11:03:17;;;;;;;6.15;1.23;;;;;;;;;;4991290;28;20418;-84
2022/04/16 11:05:44;;;;;;;2.95;1.60;;;;;;;;;;4978510;28;20527;-85
2022/04/16 11:08:14;;;;;;;2.95;1.60;;;;;;;;;;4995202;28;20046;-85
2022/04/16 11:10:41;;;;;;;2.75;1.50;;;;;;;;;;4990728;28;20051;-85
2022/04/16 11:13:10;;;;;;;2.90;1.63;;;;;;;;;;4991483;28;20070;-85
2022/04/16 11:15:36;;;;;;;3.72;1.83;;;;;;;;;;4991494;28;20153;-85
2022/04/16 11:18:03;;;;;;;2.75;1.65;;;;;;;;;;4984568;28;20107;-84
2022/04/16 11:20:30;;;;;;;3.97;1.77;;;;;;;;;;4975810;28;20069;-85
2022/04/16 11:22:58;;;;;;;5.65;1.85;;;;;;;;;;4975047;28;20149;-86
2022/04/16 11:25:25;;;;;;;2.00;1.30;;;;;;;;;;4973796;28;20054;-85
2022/04/16 11:36:30;;;;;;;4.65;1.92;;;;;;;;;;4912895;29;20051;-83
2022/04/16 11:39:00;;;;;;;4.03;1.42;;;;;;;;;;4913019;29;20052;-85
2022/04/16 11:41:28;;;;;;;7.35;1.92;;;;;;;;;;4899755;29;20513;-88
2022/04/16 11:43:54;;;;;;;2.65;1.50;;;;;;;;;;4902228;29;20055;-86
2022/04/16 11:46:22;;;;;;;2.38;1.50;;;;;;;;;;4891542;29;20071;-86
2022/04/16 11:48:50;;;;;;;1.85;1.40;;;;;;;;;;4904668;29;20052;-85
2022/04/16 11:51:18;;;;;;;2.58;1.40;;;;;;;;;;4905823;29;20732;-86
2022/04/16 11:53:54;;;;;;;3.10;1.40;;;;;;;;;;4904756;29;20669;-84
2022/04/16 11:56:21;;;;;;;2.80;1.50;;;;;;;;;;4899942;29;20480;-85
2022/04/16 11:58:50;;;;;;;2.58;1.50;;;;;;;;;;4890822;29;20056;-85
2022/04/16 12:01:21;;;;;;;2.45;1.10;;;;;;;;;;4891805;29;20498;-85
2022/04/16 12:03:48;;;;;;;2.60;1.15;;;;;;;;;;4914894;28;20057;-84
2022/04/16 12:06:16;;;;;;;2.75;1.25;;;;;;;;;;4976518;28;20511;-84
2022/04/16 12:08:43;;;;;;;8.48;1.40;;;;;;;;;;4977930;28;20054;-85
2022/04/16 12:11:10;;;;;;;2.50;1.30;;;;;;;;;;4972403;28;20153;-86
2022/04/16 12:13:39;;;;;;;1.83;1.00;;;;;;;;;;4976576;28;20051;-84
2022/04/16 12:16:15;;;;;;;2.38;1.33;;;;;;;;;;4970291;28;20073;-83
2022/04/16 12:18:44;;;;;;;2.05;1.20;;;;;;;;;;4991147;28;20049;-83
2022/04/16 12:21:11;;;;;;;;;;;;;;;;;;4979499;28;20100;-83
2022/04/16 12:23:39;;;;;;;2.83;1.20;;;;;;;;;;4982402;28;19965;-84
2022/04/16 12:26:07;;;;;;;4.82;1.38;;;;;;;;;;4969523;28;20070;-82
2022/04/16 12:28:38;;;;;;;2.53;1.33;;;;;;;;;;4978673;28;20584;-83
2022/04/16 12:31:05;;;;;;;3.08;1.48;;;;;;;;;;4979587;28;20050;-84
2022/04/16 12:33:32;;;;;;;3.22;1.27;;;;;;;;;;4978650;28;20916;-83
2022/04/16 12:35:59;;;;;;;3.17;1.48;;;;;;;;;;4979508;28;20077;-83
2022/04/16 12:38:26;;;;;;;3.08;1.70;;;;;;;;;;4970245;28;20046;-82
2022/04/16 12:41:09;;;;;;;2.50;1.38;;;;;;;;;;4970355;28;20103;-84
2022/04/16 12:43:40;;;;;;;4.18;1.60;;;;;;;;;;4980459;28;20055;-84
2022/04/16 12:46:07;;;;;;;4.15;1.80;;;;;;;;;;4979550;28;20100;-84
2022/04/16 12:48:33;;;;;;;3.13;1.45;;;;;;;;;;4978767;28;20057;-84
2022/04/16 12:51:01;;;;;;;2.65;1.50;;;;;;;;;;4983680;28;20054;-84
2022/04/16 12:53:27;;;;;;;2.00;1.40;;;;;;;;;;4976832;28;20054;-84
2022/04/16 12:55:54;;;;;;;4.63;1.30;;;;;;;;;;4976462;28;20385;-83
2022/04/16 12:58:21;;;;;;;4.03;1.52;;;;;;;;;;4982716;28;20124;-82
2022/04/16 13:00:47;;;;;;;3.83;1.40;;;;;;;;;;4975771;28;20047;-83
2022/04/16 13:03:15;;;;;;;2.42;1.30;;;;;;;;;;4974926;28;20056;-82
2022/04/16 13:05:41;;;;;;;3.53;1.67;;;;;;;;;;4973310;28;20052;-83
2022/04/16 13:08:08;;;;;;;4.97;1.80;;;;;;;;;;4982902;28;20125;-83
2022/04/16 13:10:35;;;;;;;5.40;1.60;;;;;;;;;;4989748;28;20057;-83
2022/04/16 13:13:04;;;;;;;3.97;1.27;;;;;;;;;;4987620;28;20463;-83
2022/04/16 13:15:32;;;;;;;2.65;1.20;;;;;;;;;;4984153;28;20112;-84
2022/04/16 13:17:59;;;;;;;3.30;1.65;;;;;;;;;;4976518;28;20526;-83
2022/04/16 13:20:26;;;;;;;4.22;1.98;;;;;;;;;;4978411;28;20050;-82
2022/04/16 13:22:53;;;;;;;3.22;1.42;;;;;;;;;;4971481;28;21936;-85
2022/04/16 13:25:20;;;;;;;3.42;1.25;;;;;;;;;;4973963;28;20074;-82
2022/04/16 13:27:46;;;;;;;3.40;1.40;;;;;;;;;;4979095;28;20042;-83
2022/04/16 13:30:13;;;;;;;3.05;1.20;;;;;;;;;;4974005;28;20120;-84
2022/04/16 13:32:40;;;;;;;3.28;1.10;;;;;;;;;;4983655;28;20050;-83
2022/04/16 13:35:07;;;;;;;3.00;1.33;;;;;;;;;;4978716;28;20046;-84
2022/04/16 13:37:34;;;;;;;1.95;1.00;;;;;;;;;;4982383;28;20153;-84
2022/04/16 13:42:46;;;;;;;1.70;1.00;;;;;;;;;;4977899;28;20137;-84
2022/04/16 13:45:14;;;;;;;2.65;1.20;;;;;;;;;;4982189;28;20089;-83
2022/04/16 13:47:40;;;;;;;2.67;1.25;;;;;;;;;;4979285;28;20125;-83
2022/04/16 13:50:08;;;;;;;2.58;1.45;;;;;;;;;;4983753;28;20160;-83
2022/04/16 13:52:34;;;;;;;3.13;1.30;;;;;;;;;;4983612;28;20068;-84
2022/04/16 13:55:01;;;;;;;2.60;1.50;;;;;;;;;;4979841;28;20867;-83
2022/04/16 13:57:27;;;;;;;6.05;1.80;;;;;;;;;;4972304;28;20506;-84
2022/04/16 13:59:54;;;;;;;3.92;1.50;;;;;;;;;;4976246;28;20466;-83
2022/04/16 14:02:20;;;;;;;2.47;1.20;;;;;;;;;;4978247;28;20128;-83
2022/04/16 14:07:33;;;;;;;3.70;1.50;;;;;;;;;;4973320;28;20074;-83
2022/04/16 14:09:59;;;;;;;2.95;1.30;;;;;;;;;;4979533;28;20481;-83
2022/04/16 14:12:28;;;;;;;3.80;1.60;;;;;;;;;;4977936;28;20085;-84
2022/04/16 14:14:54;;;;;;;4.65;1.60;;;;;;;;;;4981059;28;20121;-83
2022/04/16 14:17:21;;;;;;;3.97;1.67;;;;;;;;;;4979124;28;20133;-83
2022/04/16 14:19:47;;;;;;;4.50;1.90;;;;;;;;;;4979399;28;20467;-82
2022/04/16 14:22:14;;;;;;;2.97;1.60;;;;;;;;;;4984937;28;20479;-82
2022/04/16 14:24:41;;;;;;;3.20;1.55;;;;;;;;;;4984058;28;20507;-82
2022/04/16 14:27:08;;;;;;;2.97;1.45;;;;;;;;;;4976470;28;20856;-83
2022/04/16 14:29:34;;;;;;;2.95;1.40;;;;;;;;;;4972188;28;20066;-82
2022/04/16 14:32:02;;;;;;;2.95;1.38;;;;;;;;;;4984486;28;20046;-82
2022/04/16 14:34:29;;;;;;;2.55;1.23;;;;;;;;;;4983891;28;20072;-82
2022/04/16 14:36:58;;;;;;;3.47;1.48;;;;;;;;;;4978796;28;20051;-82
2022/04/16 14:39:24;;;;;;;2.58;1.38;;;;;;;;;;4974845;28;20046;-82
2022/04/16 14:41:51;;;;;;;4.00;1.63;;;;;;;;;;4976586;28;20498;-81
2022/04/16 14:44:18;;;;;;;1.98;1.20;;;;;;;;;;4976790;28;20114;-83
2022/04/16 14:46:45;;;;;;;2.60;1.45;;;;;;;;;;4977614;28;20097;-81
2022/04/16 14:49:12;;;;;;;2.42;1.30;;;;;;;;;;4973049;28;20087;-83
2022/04/16 14:51:41;;;;;;;2.38;1.50;;;;;;;;;;4978768;28;20449;-82
2022/04/16 14:54:07;;;;;;;;;;;;;;;;;;4974226;28;20061;-83
2022/04/16 14:56:34;;;;;;;3.20;1.52;;;;;;;;;;4979728;28;19922;-80
2022/04/16 14:59:02;;;;;;;3.00;1.48;;;;;;;;;;4983642;28;20069;-82
2022/04/16 15:01:29;;;;;;;4.00;1.40;;;;;;;;;;4984668;28;20069;-81
2022/04/16 15:03:56;;;;;;;5.03;1.20;;;;;;;;;;4983231;28;21263;-81
2022/04/16 15:06:23;;;;;;;3.38;1.30;;;;;;;;;;4971655;28;20038;-82
2022/04/16 15:08:50;;;;;;;2.90;1.27;;;;;;;;;;4959666;28;20070;-81
2022/04/16 15:11:16;;;;;;;4.25;1.25;;;;;;;;;;4955702;28;20051;-80
2022/04/16 15:13:43;;;;;;;4.03;1.70;;;;;;;;;;4963831;28;20047;-81
2022/04/16 15:16:10;;;;;;;3.85;1.42;;;;;;;;;;4969027;28;20074;-81
2022/04/16 15:18:37;;;;;;;5.28;1.80;;;;;;;;;;4980869;28;20105;-81
2022/04/16 15:21:03;;;;;;;4.03;1.60;;;;;;;;;;4980479;28;20046;-80
2022/04/16 15:23:30;;;;;;;6.75;2.05;;;;;;;;;;4963853;28;20066;-80
2022/04/16 15:25:59;;;;;;;1.52;1.20;;;;;;;;;;4967579;28;20051;-81
2022/04/16 15:28:25;;;;;;;6.88;1.77;;;;;;;;;;4975735;28;20046;-81
2022/04/16 15:30:52;;;;;;;4.63;2.00;;;;;;;;;;4983067;28;20095;-81
2022/04/16 15:33:19;;;;;;;6.55;1.80;;;;;;;;;;4997350;28;20053;-79
2022/04/16 15:35:46;;;;;;;10.38;1.85;;;;;;;;;;5000951;28;20062;-81
2022/04/16 15:38:13;;;;;;;5.35;1.67;;;;;;;;;;4999098;28;20524;-82
2022/04/16 15:40:40;;;;;;;5.05;1.80;;;;;;;;;;5002896;28;20066;-81
2022/04/16 15:43:07;;;;;;;5.65;2.50;;;;;;;;;;5003492;28;20104;-82
2022/04/16 15:45:33;;;;;;;6.63;2.05;;;;;;;;;;4995038;28;20128;-82
2022/04/16 15:48:00;;;;;;;4.25;1.90;;;;;;;;;;5002818;28;20054;-83
2022/04/16 15:50:27;;;;;;;7.97;1.98;;;;;;;;;;4999531;28;20481;-82
2022/04/16 15:52:55;;;;;;;5.55;1.60;;;;;;;;;;4999209;28;20046;-82
2022/04/16 15:55:21;;;;;;;6.80;1.83;;;;;;;;;;5004755;28;20076;-82
2022/04/16 15:57:48;;;;;;;4.82;1.67;;;;;;;;;;4999407;28;20041;-82
2022/04/16 16:00:14;;;;;;;5.07;2.08;;;;;;;;;;4998185;28;20133;-81
2022/04/16 16:02:41;;;;;;;3.65;1.42;;;;;;;;;;4999549;28;20061;-80
2022/04/16 16:05:09;;;;;;;5.30;1.77;;;;;;;;;;5000990;28;20050;-82
2022/04/16 16:07:38;;;;;;;5.80;1.65;;;;;;;;;;4995053;28;20058;-83
2022/04/16 16:10:09;;;;;;;5.28;1.67;;;;;;;;;;4991983;28;20081;-82
2022/04/16 16:12:36;;;;;;;5.43;2.15;;;;;;;;;;5001689;28;20132;-82
2022/04/16 16:15:06;;;;;;;5.93;1.98;;;;;;;;;;4999274;28;20049;-81
2022/04/16 16:17:35;;;;;;;4.53;1.75;;;;;;;;;;4991641;28;20104;-82
2022/04/16 16:20:06;;;;;;;3.70;2.00;;;;;;;;;;4980150;28;20073;-82
2022/04/16 16:22:33;;;;;;;5.32;2.13;;;;;;;;;;4975814;28;20074;-83
2022/04/16 16:25:02;;;;;;;6.28;2.42;;;;;;;;;;4980243;28;20050;-83
2022/04/16 16:27:29;;;;;;;5.55;2.42;;;;;;;;;;4979532;28;20077;-82
2022/04/16 16:29:57;;;;;;;5.07;2.20;;;;;;;;;;4978333;28;20047;-83
2022/04/16 16:32:26;;;;;;;3.72;1.90;;;;;;;;;;4974773;28;20035;-82
2022/04/16 16:34:53;;;;;;;4.55;1.70;;;;;;;;;;4972843;28;20125;-83
2022/04/16 16:37:21;;;;;;;3.90;1.95;;;;;;;;;;4983180;28;20060;-83
2022/04/16 16:39:48;;;;;;;5.05;1.65;;;;;;;;;;4969621;28;20055;-81
2022/04/16 16:42:15;;;;;;;5.80;1.75;;;;;;;;;;4975964;28;20070;-81
2022/04/16 16:44:42;;;;;;;4.57;1.50;;;;;;;;;;4980972;28;20141;-81
2022/04/16 16:47:09;;;;;;;5.45;1.70;;;;;;;;;;4974641;28;20046;-80
2022/04/16 16:49:36;;;;;;;7.53;2.40;;;;;;;;;;4980336;28;20540;-81
2022/04/16 16:52:03;;;;;;;11.32;3.45;;;;;;;;;;4980232;28;20054;-82
2022/04/16 16:54:30;;;;;;;6.07;3.15;;;;;;;;;;4974618;28;20523;-80
2022/04/16 16:56:58;;;;;;;6.40;3.15;;;;;;;;;;4978728;28;20093;-80
2022/04/16 16:59:25;;;;;;;7.45;3.17;;;;;;;;;;4971400;28;20487;-81
2022/04/16 17:01:51;;;;;;;7.90;3.17;;;;;;;;;;4979309;28;20081;-82
2022/04/16 17:09:53;;;;;;;10.25;3.75;;;;;;;;;;4979716;28;20066;-82
2022/04/16 17:12:20;;;;;;;6.03;4.28;;;;;;;;;;4972979;28;21693;-81
2022/04/16 17:20:18;;;;;;;10.07;4.00;;;;;;;;;;4971904;28;20907;-81
2022/04/16 17:22:48;;;;;;;10.68;4.20;;;;;;;;;;4973721;28;20054;-83
2022/04/16 17:25:16;;;;;;;10.35;4.30;;;;;;;;;;4968266;28;20069;-83
2022/04/16 17:27:46;;;;;;;9.57;4.68;;;;;;;;;;4978027;28;20129;-83
2022/04/16 17:30:12;;;;;;;10.27;4.55;;;;;;;;;;4979687;28;20054;-83
2022/04/16 17:32:39;;;;;;;9.02;4.18;;;;;;;;;;4979616;28;20062;-82
2022/04/16 17:35:06;;;;;;;8.82;3.97;;;;;;;;;;4978456;28;20134;-82
2022/04/16 17:37:33;;;;;;;6.35;3.70;;;;;;;;;;4976897;28;20047;-83
2022/04/16 17:39:59;;;;;;;9.60;4.07;;;;;;;;;;4975333;28;20101;-82
2022/04/16 17:42:27;;;;;;;8.80;3.92;;;;;;;;;;4977688;28;20144;-81
2022/04/16 17:44:55;;;;;;;6.65;4.05;;;;;;;;;;4978537;28;20050;-83
2022/04/16 17:47:24;;;;;;;6.65;3.65;;;;;;;;;;4978433;28;20080;-82
2022/04/16 17:49:51;;;;;;;6.70;3.85;;;;;;;;;;4980630;28;20038;-83
2022/04/16 17:52:18;;;;;;;9.43;3.60;;;;;;;;;;4979938;28;20122;-83
2022/04/16 17:54:45;;;;;;;9.48;4.15;;;;;;;;;;4981399;28;20150;-82
2022/04/16 17:57:11;;;;;;;9.32;3.88;;;;;;;;;;4976441;28;20050;-81
2022/04/16 17:59:39;;;;;;;8.13;3.75;;;;;;;;;;4971679;28;20078;-81
2022/04/16 18:02:08;;;;;;;8.52;3.67;;;;;;;;;;4977926;28;20101;-81
2022/04/16 18:04:37;;;;;;;6.10;3.65;;;;;;;;;;4982045;28;20057;-85
2022/04/16 18:07:05;;;;;;;10.85;3.60;;;;;;;;;;4982266;28;20418;-85
2022/04/16 18:09:32;;;;;;;12.40;3.95;;;;;;;;;;4974501;28;20112;-84
2022/04/16 18:11:58;;;;;;;11.18;4.30;;;;;;;;;;4975389;28;20144;-86
2022/04/16 18:14:25;;;;;;;9.77;3.58;;;;;;;;;;4976174;28;20129;-84
2022/04/16 18:16:52;;;;;;;7.55;3.83;;;;;;;;;;4968474;28;20121;-84
2022/04/16 18:19:19;;;;;;;7.53;3.50;;;;;;;;;;4976012;28;20078;-85
2022/04/16 18:21:46;;;;;;;6.55;4.18;;;;;;;;;;4984869;28;20501;-84
2022/04/16 18:24:14;;;;;;;12.43;3.85;;;;;;;;;;4983438;28;20533;-85
2022/04/16 18:26:41;;;;;;;12.23;5.50;;;;;;;;;;4984889;28;20074;-85
2022/04/16 18:29:07;;;;;;;11.65;5.10;;;;;;;;;;4985303;28;20118;-85
2022/04/16 18:31:35;;;;;;;6.72;3.67;;;;;;;;;;4987413;28;20050;-84
2022/04/16 18:34:03;;;;;;;9.43;4.05;;;;;;;;;;4988811;28;20042;-84
2022/04/16 18:36:33;;;;;;;46.42;30.30;;;;;;;;;;4986811;28;20125;-83
2022/04/16 18:39:00;;;;;;;14.95;8.93;;;;;;;;;;4986385;28;20076;-84
2022/04/16 18:41:27;;;;;;;15.85;8.63;;;;;;;;;;4985853;28;20133;-84
2022/04/16 18:43:54;;;;;;;10.45;4.80;;;;;;;;;;4988208;28;20595;-82
2022/04/16 18:46:21;;;;;;;10.98;4.97;;;;;;;;;;4988159;28;20042;-84
2022/04/16 18:48:47;;;;;;;10.65;4.60;;;;;;;;;;4984531;28;20602;-85
2022/04/16 18:51:16;;;;;;;10.60;4.80;;;;;;;;;;4988711;28;20081;-84
2022/04/16 18:53:45;;;;;;;9.45;4.32;;;;;;;;;;4991619;28;20104;-84
2022/04/16 18:56:15;;;;;;;17.55;10.73;;;;;;;;;;4991244;28;20088;-83
2022/04/16 18:58:43;;;;;;;54.85;35.97;;;;;;;;;;4991674;28;20058;-83
2022/04/16 19:06:56;;;;;;;7.57;4.60;;;;;;;;;;4990265;28;20073;-84
2022/04/16 19:09:28;;;;;;;15.60;4.90;;;;;;;;;;4989720;28;20150;-83
2022/04/16 19:11:59;;;;;;;8.73;5.32;;;;;;;;;;4983312;28;20097;-83
2022/04/16 19:14:38;;;;;;;7.03;5.32;;;;;;;;;;4989713;28;20050;-82
2022/04/16 19:17:08;;;;;;;8.52;5.13;;;;;;;;;;4989568;28;20048;-83
2022/04/16 19:19:41;;;;;;;9.73;4.90;;;;;;;;;;4992052;28;20074;-84
2022/04/16 19:22:09;;;;;;;12.10;4.75;;;;;;;;;;4992189;28;20057;-83
2022/04/16 19:24:41;;;;;;;11.07;5.03;;;;;;;;;;4989778;28;20046;-83
2022/04/16 19:27:08;;;;;;;12.85;5.65;;;;;;;;;;4991291;28;20047;-83
2022/04/16 19:29:34;;;;;;;10.40;5.60;;;;;;;;;;4988638;28;20042;-84
2022/04/16 19:32:01;;;;;;;11.15;5.65;;;;;;;;;;4989470;28;20042;-84
2022/04/16 19:34:29;;;;;;;11.23;6.55;;;;;;;;;;4992142;28;20533;-84
2022/04/16 19:36:56;;;;;;;11.02;9.77;;;;;;;;;;4991297;28;20091;-83
2022/04/16 19:39:22;;;;;;;29.63;26.40;;;;;;;;;;4990064;28;20136;-85
2022/04/16 19:41:49;;;;;;;9.95;6.78;;;;;;;;;;4988880;28;20082;-86
2022/04/16 19:44:16;;;;;;;8.60;5.80;;;;;;;;;;4988840;28;20111;-84
2022/04/16 19:46:42;;;;;;;10.38;7.72;;;;;;;;;;4990612;28;20131;-83
2022/04/16 19:49:09;;;;;;;11.68;6.32;;;;;;;;;;5006249;28;20129;-83
2022/04/16 19:51:36;;;;;;;10.35;5.72;;;;;;;;;;4988752;28;20397;-83
2022/04/16 19:54:13;;;;;;;9.75;5.70;;;;;;;;;;4984891;28;20047;-84
2022/04/16 19:56:40;;;;;;;10.88;5.20;;;;;;;;;;4989495;28;20565;-85
2022/04/16 19:59:07;;;;;;;11.48;5.75;;;;;;;;;;4987580;28;20081;-84
2022/04/16 20:01:34;;;;;;;11.30;5.57;;;;;;;;;;4991052;28;20464;-84
2022/04/16 20:04:01;;;;;;;11.55;5.50;;;;;;;;;;4991229;28;20882;-84
2022/04/16 20:06:28;;;;;;;10.27;5.18;;;;;;;;;;4988023;28;20077;-84
2022/04/16 20:11:40;;;;;;;8.40;5.00;;;;;;;;;;4985482;28;20507;-85
2022/04/16 20:14:09;;;;;;;11.95;5.25;;;;;;;;;;4987683;28;20132;-83
2022/04/16 20:16:36;;;;;;;7.03;4.65;;;;;;;;;;4989384;28;20042;-83
2022/04/16 20:19:04;;;;;;;9.40;4.32;;;;;;;;;;4990121;28;20587;-87
2022/04/16 20:21:31;;;;;;;8.25;4.60;;;;;;;;;;4981641;28;20054;-85
2022/04/16 20:23:58;;;;;;;8.07;4.93;;;;;;;;;;4987146;28;20058;-86
2022/04/16 20:26:26;;;;;;;12.10;5.70;;;;;;;;;;4986188;28;20058;-84
2022/04/16 20:28:52;;;;;;;8.45;4.57;;;;;;;;;;4983746;28;20054;-86
2022/04/16 20:31:19;;;;;;;8.18;4.97;;;;;;;;;;4985564;28;20050;-86
2022/04/16 20:33:46;;;;;;;6.30;3.90;;;;;;;;;;4987978;28;20054;-84
2022/04/16 20:36:13;;;;;;;6.50;3.95;;;;;;;;;;4987598;28;20478;-84
2022/04/16 20:38:40;;;;;;;6.07;4.13;;;;;;;;;;4988238;28;20073;-86
2022/04/16 20:46:36;;;;;;;8.07;4.90;;;;;;;;;;4988221;28;20124;-84
2022/04/16 20:49:03;;;;;;;7.65;4.30;;;;;;;;;;4989491;28;20145;-84
2022/04/16 20:54:27;;;;;;;8.20;4.57;;;;;;;;;;4989259;28;20096;-84
2022/04/16 20:56:53;;;;;;;8.05;5.05;;;;;;;;;;4990852;28;20446;-85
2022/04/16 20:59:20;;;;;;;10.55;5.55;;;;;;;;;;4990964;28;20042;-84
2022/04/16 21:01:51;;;;;;;9.60;5.20;;;;;;;;;;4991529;28;20414;-85
2022/04/16 21:04:18;;;;;;;8.60;6.05;;;;;;;;;;4989653;28;20045;-83
2022/04/16 21:06:45;;;;;;;9.23;6.32;;;;;;;;;;4988359;28;20054;-85
2022/04/16 21:09:12;;;;;;;11.10;6.93;;;;;;;;;;4983519;28;20120;-86
2022/04/16 21:11:39;;;;;;;9.45;7.00;;;;;;;;;;4988072;28;20093;-86
2022/04/16 21:14:06;;;;;;;11.10;7.40;;;;;;;;;;4985424;28;20458;-85
2022/04/16 21:16:32;;;;;;;10.98;7.43;;;;;;;;;;4987986;28;20073;-85
2022/04/16 21:19:00;;;;;;;11.68;8.10;;;;;;;;;;4987333;28;20073;-85
2022/04/16 21:21:28;;;;;;;9.05;6.88;;;;;;;;;;4987303;28;20046;-84
2022/04/16 21:23:56;;;;;;;11.03;7.70;;;;;;;;;;4987094;28;20050;-84
2022/04/16 21:26:25;;;;;;;11.00;7.45;;;;;;;;;;4980535;28;21240;-86
2022/04/16 21:28:52;;;;;;;11.20;7.57;;;;;;;;;;4984196;28;20035;-85
2022/04/16 21:31:18;;;;;;;8.35;6.82;;;;;;;;;;4980581;28;20138;-85
2022/04/16 21:33:45;;;;;;;11.27;7.63;;;;;;;;;;4971300;28;20152;-84
2022/04/16 21:36:12;;;;;;;10.27;6.97;;;;;;;;;;4978884;28;20463;-84
2022/04/16 21:38:38;;;;;;;12.65;8.40;;;;;;;;;;4981102;28;20089;-83
2022/04/16 21:41:05;;;;;;;10.05;7.88;;;;;;;;;;4973500;28;20130;-83
2022/04/16 21:43:32;;;;;;;12.05;8.20;;;;;;;;;;4983600;28;20092;-84
2022/04/16 21:45:59;;;;;;;10.48;7.97;;;;;;;;;;4978991;28;20054;-84
2022/04/16 21:48:25;;;;;;;11.50;8.82;;;;;;;;;;4979807;28;22095;-84
2022/04/16 21:50:52;;;;;;;12.27;8.50;;;;;;;;;;4975956;28;20042;-83
2022/04/16 21:53:18;;;;;;;12.43;9.60;;;;;;;;;;4969657;28;20081;-82
2022/04/16 21:55:45;;;;;;;13.32;10.07;;;;;;;;;;4983484;28;20066;-85
2022/04/16 21:58:12;;;;;;;9.20;7.97;;;;;;;;;;4989412;28;20046;-82
2022/04/16 22:00:39;;;;;;;12.30;8.82;;;;;;;;;;4983437;28;20046;-82
2022/04/16 22:03:06;;;;;;;13.38;8.50;;;;;;;;;;4985923;28;20050;-82